Time;durP1;ratioP1;P1;durP2;ratioP2;P2;SDS_P1;SDS_P2;PMS_P1;PMS_P2;Temp;Humidity;BMP_temperature;BMP_pressure;BME280_temperature;BME280_humidity;BME280_pressure;Samples;Min_cycle;Max_cycle;Signal;HPM_P1;HPM_P2
2023/08/02 00:00:18;;;;;;;;;;;;;;;-140.72;100.00;52758.16;5092787;28;20148;-70
2023/08/02 00:02:44;;;;;;;;;;;;;;;-140.72;100.00;52707.41;5079064;28;19920;-69
2023/08/02 00:05:09;;;;;;;;;;;;;;;-140.72;100.00;52750.03;5091604;28;19916;-70
2023/08/02 00:07:34;;;;;;;;;;;;;;;-140.72;100.00;52735.81;5082322;28;19923;-70
2023/08/02 00:09:59;;;;;;;;;;;;;;;-140.72;100.00;52676.97;5079060;28;19942;-70
2023/08/02 00:12:25;;;;;;;;;;;;;;;-140.72;100.00;52745.97;5081514;28;19962;-69
2023/08/02 00:14:50;;;;;;;;;;;;;;;-140.72;100.00;52721.63;5090186;28;19942;-70
2023/08/02 00:17:15;;;;;;;;;;;;;;;-140.72;100.00;52774.38;5087112;28;19916;-70
2023/08/02 00:19:40;;;;;;;;;;;;;;;-140.72;100.00;52721.63;5082432;28;19921;-70
2023/08/02 00:22:06;;;;;;;;;;;;;;;-140.72;100.00;52756.13;5088578;28;19924;-69
2023/08/02 00:24:31;;;;;;;;;;;;;;;-140.72;100.00;52760.19;5089142;28;20300;-70
2023/08/02 00:26:56;;;;;;;;;;;;;;;-140.72;100.00;52784.53;5092553;28;20286;-69
2023/08/02 00:29:21;;;;;;;;;;;;;;;-140.72;100.00;52709.44;5093158;28;20365;-70
2023/08/02 00:31:47;;;;;;;;;;;;;;;-140.72;100.00;52713.50;5072919;28;20305;-70
2023/08/02 00:34:12;;;;;;;;;;;;;;;-140.72;100.00;52748.00;5067228;28;19932;-70
2023/08/02 00:36:37;;;;;;;;;;;;;;;-140.72;100.00;52725.69;5071898;28;19917;-70
2023/08/02 00:39:02;;;;;;;;;;;;;;;-140.72;100.00;52735.81;5068332;28;20016;-69
2023/08/02 00:41:27;;;;;;;;;;;;;;;-140.72;100.00;52699.31;5072134;28;20417;-70
2023/08/02 00:43:53;;;;;;;;;;;;;;;-140.72;100.00;52735.81;5072407;28;20011;-70
2023/08/02 00:46:19;;;;;;;;;;;;;;;-140.72;100.00;52711.47;5067367;28;19917;-70
2023/08/02 00:48:46;;;;;;;;;;;;;;;-140.72;100.00;52703.34;5079304;28;19935;-70
2023/08/02 00:51:15;;;;;;;;;;;;;;;-140.72;100.00;52699.31;5079074;28;20019;-70
2023/08/02 00:53:41;;;;;;;;;;;;;;;-140.72;100.00;52719.59;5066080;28;19920;-70
2023/08/02 00:56:06;;;;;;;;;;;;;;;-140.72;100.00;52739.88;5072055;28;19917;-70
2023/08/02 00:58:32;;;;;;;;;;;;;;;-140.72;100.00;52739.88;5060148;28;19970;-70
2023/08/02 01:01:07;;;;;;;;;;;;;;;-140.72;100.00;52766.25;5079364;28;19916;-70
2023/08/02 01:03:44;;;;;;;;;;;;;;;-140.72;100.00;52758.16;5078938;28;19962;-70
2023/08/02 01:06:15;;;;;;;;;;;;;;;-140.72;100.00;52748.00;5078824;28;19967;-69
2023/08/02 01:08:42;;;;;;;;;;;;;;;-140.72;100.00;52711.47;5066213;28;19965;-70
2023/08/02 01:11:07;;;;;;;;;;;;;;;-140.72;100.00;52743.94;5078381;28;20385;-70
2023/08/02 01:13:34;;;;;;;;;;;;;;;-140.72;100.00;52745.97;5079101;28;19917;-70
2023/08/02 01:16:00;;;;;;;;;;;;;;;-140.72;100.00;52743.94;5077850;28;20441;-70
2023/08/02 01:18:26;;;;;;;;;;;;;;;-140.72;100.00;52750.03;5066807;28;19960;-70
2023/08/02 01:20:51;;;;;;;;;;;;;;;-140.72;100.00;52743.94;5074085;28;19948;-70
2023/08/02 01:23:16;;;;;;;;;;;;;;;-140.72;100.00;52756.13;5076023;28;19925;-70
2023/08/02 01:25:43;;;;;;;;;;;;;;;-140.72;100.00;52768.28;5071843;28;20419;-70
2023/08/02 01:28:12;;;;;;;;;;;;;;;-140.72;100.00;52729.75;5078180;28;20373;-70
2023/08/02 01:30:38;;;;;;;;;;;;;;;-140.72;100.00;52733.78;5079656;28;19917;-70
2023/08/02 01:33:04;;;;;;;;;;;;;;;-140.72;100.00;52748.00;5099199;28;20032;-70
2023/08/02 01:35:30;;;;;;;;;;;;;;;-140.72;100.00;52752.06;5097694;28;20364;-71
2023/08/02 01:37:56;;;;;;;;;;;;;;;-140.72;100.00;52756.13;5092211;28;19952;-70
2023/08/02 01:40:21;;;;;;;;;;;;;;;-140.72;100.00;52743.94;5097742;28;20001;-70
2023/08/02 01:42:48;;;;;;;;;;;;;;;-140.72;100.00;52741.91;5086948;28;21368;-70
2023/08/02 01:45:14;;;;;;;;;;;;;;;-140.72;100.00;52743.94;5097991;28;19970;-69
2023/08/02 01:47:39;;;;;;;;;;;;;;;-140.72;100.00;52760.19;5100667;28;19978;-70
2023/08/02 01:50:04;;;;;;;;;;;;;;;-140.72;100.00;52745.97;5088354;28;19923;-70
2023/08/02 01:52:30;;;;;;;;;;;;;;;-140.72;100.00;52788.59;5103365;28;19958;-70
2023/08/02 01:54:55;;;;;;;;;;;;;;;-140.72;100.00;52770.31;5095065;28;19920;-70
2023/08/02 01:57:20;;;;;;;;;;;;;;;-140.72;100.00;52778.44;5093055;28;19956;-70
2023/08/02 01:59:45;;;;;;;;;;;;;;;-140.72;100.00;52719.59;5092932;28;19916;-70
2023/08/02 02:02:11;;;;;;;;;;;;;;;-140.72;100.00;52721.63;5092380;28;19916;-70
2023/08/02 02:04:36;;;;;;;;;;;;;;;-140.72;100.00;52780.47;5095286;28;19918;-70
2023/08/02 02:07:01;;;;;;;;;;;;;;;-140.72;100.00;52741.91;5095553;28;20386;-70
2023/08/02 02:09:27;;;;;;;;;;;;;;;-140.72;100.00;52756.13;5095857;28;19916;-70
2023/08/02 02:11:52;;;;;;;;;;;;;;;-140.72;100.00;52780.47;5092403;28;20274;-73
2023/08/02 02:14:17;;;;;;;;;;;;;;;-140.72;100.00;52796.72;5091634;28;19932;-70
2023/08/02 02:16:42;;;;;;;;;;;;;;;-140.72;100.00;52752.06;5093083;28;19924;-70
2023/08/02 02:19:08;;;;;;;;;;;;;;;-140.72;100.00;52790.63;5077188;28;19918;-69
2023/08/02 02:21:33;;;;;;;;;;;;;;;-140.72;100.00;52780.47;5071649;28;19916;-70
2023/08/02 02:23:58;;;;;;;;;;;;;;;-140.72;100.00;52774.38;5084940;28;19916;-69
2023/08/02 02:26:25;;;;;;;;;;;;;;;-140.72;100.00;52780.47;5082842;28;20270;-69
2023/08/02 02:28:50;;;;;;;;;;;;;;;-140.72;100.00;52758.16;5083793;28;20003;-69
2023/08/02 02:31:15;;;;;;;;;;;;;;;-140.72;100.00;52800.75;5086359;28;20334;-70
2023/08/02 02:33:40;;;;;;;;;;;;;;;-140.72;100.00;52784.53;5087934;28;20412;-69
2023/08/02 02:36:06;;;;;;;;;;;;;;;-140.72;100.00;52798.72;5084452;28;19917;-69
2023/08/02 02:38:32;;;;;;;;;;;;;;;-140.72;100.00;52731.75;5085064;28;20334;-69
2023/08/02 02:40:57;;;;;;;;;;;;;;;-140.72;100.00;52750.03;5094051;28;19917;-69
2023/08/02 02:43:22;;;;;;;;;;;;;;;-140.72;100.00;52782.50;5093585;28;19916;-69
2023/08/02 02:45:54;;;;;;;;;;;;;;;-140.72;100.00;52780.47;5092204;28;19916;-69
2023/08/02 02:48:19;;;;;;;;;;;;;;;-140.72;100.00;52764.25;5093650;28;19920;-69
2023/08/02 02:50:44;;;;;;;;;;;;;;;-140.72;100.00;52735.81;5079567;28;20323;-69
2023/08/02 02:53:10;;;;;;;;;;;;;;;-140.72;100.00;52784.53;5096109;28;19920;-69
2023/08/02 02:55:35;;;;;;;;;;;;;;;-140.72;100.00;52770.31;5094921;28;19921;-69
2023/08/02 02:58:00;;;;;;;;;;;;;;;-140.72;100.00;52762.22;5095543;28;20380;-69
2023/08/02 03:00:39;;;;;;;;;;;;;;;-140.72;100.00;52739.88;5079670;28;19920;-70
2023/08/02 03:03:05;;;;;;;;;;;;;;;-140.72;100.00;52796.72;5082848;28;20003;-70
2023/08/02 03:05:30;;;;;;;;;;;;;;;-140.72;100.00;52784.53;5063806;28;20078;-69
2023/08/02 03:07:55;;;;;;;;;;;;;;;-140.72;100.00;52784.53;5087060;28;19917;-69
2023/08/02 03:10:21;;;;;;;;;;;;;;;-140.72;100.00;52768.28;5071781;28;19920;-69
2023/08/02 03:12:47;;;;;;;;;;;;;;;-140.72;100.00;52770.31;5089963;28;20414;-69
2023/08/02 03:15:12;;;;;;;;;;;;;;;-140.72;100.00;52780.47;5100874;28;20376;-69
2023/08/02 03:17:37;;;;;;;;;;;;;;;-140.72;100.00;52782.50;5104074;28;20377;-69
2023/08/02 03:20:02;;;;;;;;;;;;;;;-140.72;100.00;52735.81;5089305;28;20286;-70
2023/08/02 03:22:28;;;;;;;;;;;;;;;-140.72;100.00;52790.63;5095080;28;20014;-69
2023/08/02 03:24:53;;;;;;;;;;;;;;;-140.72;100.00;52745.97;5081313;28;20003;-69
2023/08/02 03:27:18;;;;;;;;;;;;;;;-140.72;100.00;52794.69;5073231;28;19962;-70
2023/08/02 03:29:43;;;;;;;;;;;;;;;-140.72;100.00;52760.19;5085879;28;19955;-69
2023/08/02 03:32:09;;;;;;;;;;;;;;;-140.72;100.00;52760.19;5087623;28;19921;-69
2023/08/02 03:34:34;;;;;;;;;;;;;;;-140.72;100.00;52768.28;5096467;28;19955;-69
2023/08/02 03:36:59;;;;;;;;;;;;;;;-140.72;100.00;52792.66;5094698;28;19923;-69
2023/08/02 03:39:27;;;;;;;;;;;;;;;-140.72;100.00;52784.53;5087811;28;19916;-69
2023/08/02 03:41:54;;;;;;;;;;;;;;;-140.72;100.00;52748.00;5070116;28;20014;-69
2023/08/02 03:44:19;;;;;;;;;;;;;;;-140.72;100.00;52729.75;5100871;28;20413;-69
2023/08/02 03:46:44;;;;;;;;;;;;;;;-140.72;100.00;52774.38;5086706;28;19966;-69
2023/08/02 03:49:10;;;;;;;;;;;;;;;-140.72;100.00;52733.78;5073236;28;19944;-69
2023/08/02 03:51:35;;;;;;;;;;;;;;;-140.72;100.00;52764.25;5092601;28;19923;-69
2023/08/02 03:54:00;;;;;;;;;;;;;;;-140.72;100.00;52780.47;5075800;28;19966;-69
2023/08/02 03:56:25;;;;;;;;;;;;;;;-140.72;100.00;52798.72;5099082;28;19916;-69
2023/08/02 03:58:51;;;;;;;;;;;;;;;-140.72;100.00;52762.22;5076258;28;20454;-69
2023/08/02 04:01:16;;;;;;;;;;;;;;;-140.72;100.00;52758.16;5084677;28;20384;-69
2023/08/02 04:03:41;;;;;;;;;;;;;;;-140.72;100.00;52760.19;5093688;28;19922;-69
2023/08/02 04:06:06;;;;;;;;;;;;;;;-140.72;100.00;52794.69;5094614;28;19943;-69
2023/08/02 04:08:32;;;;;;;;;;;;;;;-140.72;100.00;52796.72;5088188;28;19916;-69
2023/08/02 04:11:02;;;;;;;;;;;;;;;-140.72;100.00;52792.66;5075005;28;19917;-69
2023/08/02 04:13:27;;;;;;;;;;;;;;;-140.72;100.00;52806.84;5091809;28;19923;-69
2023/08/02 04:15:52;;;;;;;;;;;;;;;-140.72;100.00;52790.63;5094015;28;20011;-69
2023/08/02 04:18:17;;;;;;;;;;;;;;;-140.72;100.00;52780.47;5089226;28;20030;-69
2023/08/02 04:20:42;;;;;;;;;;;;;;;-140.72;100.00;52762.22;5093702;28;19923;-69
2023/08/02 04:23:08;;;;;;;;;;;;;;;-140.72;100.00;52796.72;5090960;28;19916;-69
2023/08/02 04:25:33;;;;;;;;;;;;;;;-140.72;100.00;52808.88;5089453;28;20315;-69
2023/08/02 04:27:58;;;;;;;;;;;;;;;-140.72;100.00;52768.28;5079016;28;19924;-69
2023/08/02 04:30:23;;;;;;;;;;;;;;;-140.72;100.00;52800.75;5084276;28;19923;-69
2023/08/02 04:32:50;;;;;;;;;;;;;;;-140.72;100.00;52780.47;5092305;28;19920;-69
2023/08/02 04:35:17;;;;;;;;;;;;;;;-140.72;100.00;52804.81;5093264;28;19950;-69
2023/08/02 04:37:43;;;;;;;;;;;;;;;-140.72;100.00;52810.91;5091337;28;19916;-69
2023/08/02 04:40:09;;;;;;;;;;;;;;;-140.72;100.00;52819.03;5088954;28;19939;-69
2023/08/02 04:42:34;;;;;;;;;;;;;;;-140.72;100.00;52796.72;5084608;28;20361;-68
2023/08/02 04:44:59;;;;;;;;;;;;;;;-140.72;100.00;52754.09;5097622;28;19916;-68
2023/08/02 04:47:24;;;;;;;;;;;;;;;-140.72;100.00;52808.88;5083922;28;19916;-68
2023/08/02 04:49:50;;;;;;;;;;;;;;;-140.72;100.00;52780.47;5079033;28;19920;-69
2023/08/02 04:52:15;;;;;;;;;;;;;;;-140.72;100.00;52794.69;5086904;28;19944;-69
2023/08/02 04:54:40;;;;;;;;;;;;;;;-140.72;100.00;52784.53;5092089;28;19920;-68
2023/08/02 04:57:05;;;;;;;;;;;;;;;-140.72;100.00;52784.53;5097512;28;19947;-68
2023/08/02 04:59:32;;;;;;;;;;;;;;;-140.72;100.00;52806.84;5083756;28;19916;-68
2023/08/02 05:01:57;;;;;;;;;;;;;;;-140.72;100.00;52794.69;5081620;28;19951;-68
2023/08/02 05:04:22;;;;;;;;;;;;;;;-140.72;100.00;52792.66;5080023;28;19916;-68
2023/08/02 05:06:47;;;;;;;;;;;;;;;-140.72;100.00;52804.81;5079035;28;19917;-70
2023/08/02 05:09:12;;;;;;;;;;;;;;;-140.72;100.00;52727.72;5087224;28;19917;-69
2023/08/02 05:11:41;;;;;;;;;;;;;;;-140.72;100.00;52788.59;5086349;28;19982;-69
2023/08/02 05:14:06;;;;;;;;;;;;;;;-140.72;100.00;52780.47;5092455;28;19945;-69
2023/08/02 05:16:31;;;;;;;;;;;;;;;-140.72;100.00;52768.28;5093415;28;20395;-69
2023/08/02 05:18:57;;;;;;;;;;;;;;;-140.72;100.00;52788.59;5081306;28;19923;-69
2023/08/02 05:21:23;;;;;;;;;;;;;;;-140.72;100.00;52756.13;5081028;28;20349;-69
2023/08/02 05:23:49;;;;;;;;;;;;;;;-140.72;100.00;52776.41;5060960;28;19939;-69
2023/08/02 05:26:14;;;;;;;;;;;;;;;-140.72;100.00;52847.44;5080972;28;19917;-69
2023/08/02 05:28:39;;;;;;;;;;;;;;;-140.72;100.00;52808.88;5076343;28;19931;-69
2023/08/02 05:31:11;;;;;;;;;;;;;;;-140.72;100.00;52792.66;5066515;28;20377;-69
2023/08/02 05:33:37;;;;;;;;;;;;;;;-140.72;100.00;52804.81;5083384;28;19938;-69
2023/08/02 05:36:02;;;;;;;;;;;;;;;-140.72;100.00;52817.00;5089415;28;19995;-69
2023/08/02 05:38:27;;;;;;;;;;;;;;;-140.72;100.00;52788.59;5090575;28;19916;-69
2023/08/02 05:40:52;;;;;;;;;;;;;;;-140.72;100.00;52794.69;5088511;28;19985;-69
2023/08/02 05:43:18;;;;;;;;;;;;;;;-140.72;100.00;52790.63;5086716;28;19916;-69
2023/08/02 05:45:43;;;;;;;;;;;;;;;-140.72;100.00;52780.47;5076817;28;19916;-69
2023/08/02 05:48:08;;;;;;;;;;;;;;;-140.72;100.00;52821.06;5096319;28;19916;-69
2023/08/02 05:50:33;;;;;;;;;;;;;;;-140.72;100.00;52802.78;5097013;28;19917;-69
2023/08/02 05:52:59;;;;;;;;;;;;;;;-140.72;100.00;52764.25;5081610;28;19923;-69
2023/08/02 05:55:24;;;;;;;;;;;;;;;-140.72;100.00;52812.94;5100312;28;19915;-69
2023/08/02 05:57:49;;;;;;;;;;;;;;;-140.72;100.00;52802.78;5087325;28;19959;-68
2023/08/02 06:00:14;;;;;;;;;;;;;;;-140.72;100.00;52780.47;5089500;28;19917;-68
2023/08/02 06:02:40;;;;;;;;;;;;;;;-140.72;100.00;52790.63;5089889;28;19943;-69
2023/08/02 06:05:05;;;;;;;;;;;;;;;-140.72;100.00;52806.84;5094414;28;19916;-69
2023/08/02 06:07:30;;;;;;;;;;;;;;;-140.72;100.00;52778.44;5084878;28;20286;-69
2023/08/02 06:09:56;;;;;;;;;;;;;;;-140.72;100.00;52778.44;5091971;28;20266;-68
2023/08/02 06:12:21;;;;;;;;;;;;;;;-140.72;100.00;52764.25;5091684;28;20336;-69
2023/08/02 06:14:46;;;;;;;;;;;;;;;-140.72;100.00;52802.78;5091628;28;20007;-68
2023/08/02 06:17:12;;;;;;;;;;;;;;;-140.72;100.00;52798.72;5087837;28;19916;-68
2023/08/02 06:19:37;;;;;;;;;;;;;;;-140.72;100.00;52835.25;5087118;28;19920;-68
2023/08/02 06:22:03;;;;;;;;;;;;;;;-140.72;100.00;52792.66;5096353;28;19923;-68
2023/08/02 06:24:28;;;;;;;;;;;;;;;-140.72;100.00;52800.75;5105642;28;19917;-68
2023/08/02 06:26:53;;;;;;;;;;;;;;;-140.72;100.00;52786.56;5091151;28;20048;-69
2023/08/02 06:29:18;;;;;;;;;;;;;;;-140.72;100.00;52798.72;5087194;28;19970;-69
2023/08/02 06:31:44;;;;;;;;;;;;;;;-140.72;100.00;52768.28;5082399;28;19920;-68
2023/08/02 06:34:09;;;;;;;;;;;;;;;-140.72;100.00;52768.28;5081883;28;20007;-68
2023/08/02 06:36:38;;;;;;;;;;;;;;;-140.72;100.00;52756.13;5104209;28;20366;-69
2023/08/02 06:39:03;;;;;;;;;;;;;;;-140.72;100.00;52792.66;5092321;28;19924;-69
2023/08/02 06:41:28;;;;;;;;;;;;;;;-140.72;100.00;52784.53;5079150;28;20348;-68
2023/08/02 06:43:53;;;;;;;;;;;;;;;-140.72;100.00;52790.63;5093651;28;20242;-68
2023/08/02 06:46:19;;;;;;;;;;;;;;;-140.72;100.00;52776.41;5089783;28;19951;-68
2023/08/02 06:48:44;;;;;;;;;;;;;;;-140.72;100.00;52770.31;5082723;28;19923;-69
2023/08/02 06:51:12;;;;;;;;;;;;;;;-140.72;100.00;52768.28;5088648;28;19921;-68
2023/08/02 06:53:37;;;;;;;;;;;;;;;-140.72;100.00;52800.75;5101018;28;20426;-69
2023/08/02 06:56:16;;;;;;;;;;;;;;;-140.72;100.00;52784.53;5082305;28;19917;-69
2023/08/02 06:58:42;;;;;;;;;;;;;;;-140.72;100.00;52764.25;5069514;28;20419;-68
2023/08/02 07:01:11;;;;;;;;;;;;;;;-140.72;100.00;52760.19;5086086;28;19951;-68
2023/08/02 07:03:36;;;;;;;;;;;;;;;-140.72;100.00;52756.13;5083978;28;20285;-69
2023/08/02 07:06:06;;;;;;;;;;;;;;;-140.72;100.00;52731.75;5092816;28;19916;-68
2023/08/02 07:08:32;;;;;;;;;;;;;;;-140.72;100.00;52810.91;5078722;28;20366;-68
2023/08/02 07:10:57;;;;;;;;;;;;;;;-140.72;100.00;52745.97;5063536;28;20007;-69
2023/08/02 07:13:22;;;;;;;;;;;;;;;-140.72;100.00;52768.28;5107124;28;20273;-69
2023/08/02 07:15:47;;;;;;;;;;;;;;;-140.72;100.00;52756.13;5093559;28;19916;-69
2023/08/02 07:18:13;;;;;;;;;;;;;;;-140.72;100.00;52766.25;5079776;28;20006;-68
2023/08/02 07:20:38;;;;;;;;;;;;;;;-140.72;100.00;52762.22;5085119;28;19916;-69
2023/08/02 07:23:03;;;;;;;;;;;;;;;-140.72;100.00;52752.06;5088857;28;19922;-68
2023/08/02 07:25:29;;;;;;;;;;;;;;;-140.72;100.00;52758.16;5075766;28;19987;-68
2023/08/02 07:27:54;;;;;;;;;;;;;;;-140.72;100.00;52764.25;5088625;28;19998;-68
2023/08/02 07:30:20;;;;;;;;;;;;;;;-140.72;100.00;52770.31;5084881;28;20284;-69
2023/08/02 07:32:45;;;;;;;;;;;;;;;-140.72;100.00;52766.25;5082378;28;19951;-69
2023/08/02 07:35:10;;;;;;;;;;;;;;;-140.72;100.00;52764.25;5094588;28;19927;-69
2023/08/02 07:37:36;;;;;;;;;;;;;;;-140.72;100.00;52752.06;5075032;28;19916;-69
2023/08/02 07:40:01;;;;;;;;;;;;;;;-140.72;100.00;52756.13;5093704;28;19916;-68
2023/08/02 07:42:26;;;;;;;;;;;;;;;-140.72;100.00;52752.06;5072047;28;19920;-68
2023/08/02 07:45:07;;;;;;;;;;;;;;;-140.72;100.00;52770.31;5093978;28;19920;-68
2023/08/02 07:47:33;;;;;;;;;;;;;;;-140.72;100.00;52768.28;5081854;28;19916;-69
2023/08/02 07:49:58;;;;;;;;;;;;;;;-140.72;100.00;52810.91;5094096;28;19939;-69
2023/08/02 07:52:24;;;;;;;;;;;;;;;-140.72;100.00;52770.31;5093630;28;19923;-69
2023/08/02 07:54:51;;;;;;;;;;;;;;;-140.72;100.00;52774.38;5092858;28;19920;-69
2023/08/02 07:57:16;;;;;;;;;;;;;;;-140.72;100.00;52780.47;5090962;28;19926;-69
2023/08/02 07:59:41;;;;;;;;;;;;;;;-140.72;100.00;52721.63;5085439;28;19916;-69
2023/08/02 08:02:06;;;;;;;;;;;;;;;-140.72;100.00;52770.31;5103908;28;19970;-69
2023/08/02 08:04:32;;;;;;;;;;;;;;;-140.72;100.00;52776.41;5092733;28;19916;-69
2023/08/02 08:06:57;;;;;;;;;;;;;;;-140.72;100.00;52762.22;5093405;28;20378;-69
2023/08/02 08:09:24;;;;;;;;;;;;;;;-140.72;100.00;52745.97;5093665;28;19999;-69
2023/08/02 08:11:49;;;;;;;;;;;;;;;-140.72;100.00;52774.38;5091175;28;20031;-69
2023/08/02 08:14:14;;;;;;;;;;;;;;;-140.72;100.00;52752.06;5093428;28;20385;-69
2023/08/02 08:16:40;;;;;;;;;;;;;;;-140.72;100.00;52733.78;5093510;28;19927;-68
2023/08/02 08:19:05;;;;;;;;;;;;;;;-140.72;100.00;52752.06;5094717;28;19923;-68
2023/08/02 08:21:31;;;;;;;;;;;;;;;-140.72;100.00;52723.66;5108132;28;19920;-68
2023/08/02 08:23:56;;;;;;;;;;;;;;;-140.72;100.00;52731.75;5098082;28;19923;-68
2023/08/02 08:26:22;;;;;;;;;;;;;;;-140.72;100.00;52754.09;5094333;28;19955;-68
2023/08/02 08:28:47;;;;;;;;;;;;;;;-140.72;100.00;52731.75;5092905;28;19916;-68
2023/08/02 08:31:13;;;;;;;;;;;;;;;-140.72;100.00;52745.97;5103715;28;20023;-68
2023/08/02 08:33:38;;;;;;;;;;;;;;;-140.72;100.00;52689.16;5102644;28;20361;-68
2023/08/02 08:36:03;;;;;;;;;;;;;;;-140.72;100.00;52721.63;5076299;28;19916;-68
2023/08/02 08:38:30;;;;;;;;;;;;;;;-140.72;100.00;52713.50;5092440;28;20003;-68
2023/08/02 08:40:56;;;;;;;;;;;;;;;-140.72;100.00;52713.50;5085162;28;19916;-68
2023/08/02 08:43:25;;;;;;;;;;;;;;;-140.72;100.00;52689.16;5090979;28;19971;-69
2023/08/02 08:45:52;;;;;;;;;;;;;;;-140.72;100.00;52691.19;5091314;28;19920;-68
2023/08/02 08:48:17;;;;;;;;;;;;;;;-140.72;100.00;52666.84;5092473;28;19916;-68
2023/08/02 08:50:44;;;;;;;;;;;;;;;-140.72;100.00;52650.59;5092353;28;20319;-68
2023/08/02 08:53:14;;;;;;;;;;;;;;;-140.72;100.00;52650.59;5090034;28;19917;-68
2023/08/02 08:55:40;;;;;;;;;;;;;;;-140.72;100.00;52695.25;5092185;28;19939;-68
2023/08/02 08:58:06;;;;;;;;;;;;;;;-140.72;100.00;52693.22;5092847;28;20007;-68
2023/08/02 09:00:32;;;;;;;;;;;;;;;-140.72;100.00;52658.72;5092654;28;19923;-68
2023/08/02 09:02:58;;;;;;;;;;;;;;;-140.72;100.00;52662.78;5088322;28;19916;-68
2023/08/02 09:05:25;;;;;;;;;;;;;;;-140.72;100.00;52697.28;5093353;28;20300;-68
2023/08/02 09:07:57;;;;;;;;;;;;;;;-140.72;100.00;52707.41;5091962;28;20385;-68
2023/08/02 09:10:22;;;;;;;;;;;;;;;-140.72;100.00;52658.72;5096443;28;19920;-68
2023/08/02 09:12:47;;;;;;;;;;;;;;;-140.72;100.00;52614.06;5097234;28;19917;-68
2023/08/02 09:15:13;;;;;;;;;;;;;;;-140.72;100.00;52628.28;5096797;28;20003;-68
2023/08/02 09:17:46;;;;;;;;;;;;;;;-140.72;100.00;52644.50;5071703;28;19935;-68
2023/08/02 09:20:12;;;;;;;;;;;;;;;-140.72;100.00;52626.25;5096931;28;20282;-68
2023/08/02 09:22:37;;;;;;;;;;;;;;;-140.72;100.00;52545.06;5090102;28;19969;-68
2023/08/02 09:25:04;;;;;;;;;;;;;;;-140.72;100.00;52605.94;5089797;28;20003;-68
2023/08/02 09:27:30;;;;;;;;;;;;;;;-140.72;100.00;52607.97;5090982;28;19999;-69
2023/08/02 09:29:56;;;;;;;;;;;;;;;-140.72;100.00;52599.88;5096469;28;20007;-68
2023/08/02 09:32:22;;;;;;;;;;;;;;;-140.72;100.00;52541.03;5097000;28;19920;-68
2023/08/02 09:34:48;;;;;;;;;;;;;;;-140.72;100.00;52559.28;5089264;28;19916;-68
2023/08/02 09:37:15;;;;;;;;;;;;;;;-140.72;100.00;52575.50;5097016;28;19916;-68
2023/08/02 09:39:47;;;;;;;;;;;;;;;-140.72;100.00;52516.66;5093826;28;19923;-69
2023/08/02 09:42:15;;;;;;;;;;;;;;;-140.72;100.00;52543.03;5091275;28;20335;-69
2023/08/02 09:44:41;;;;;;;;;;;;;;;-140.72;100.00;52528.84;5096226;28;20065;-68
2023/08/02 09:47:10;;;;;;;;;;;;;;;-140.72;100.00;52561.31;5095956;28;19989;-69
2023/08/02 09:49:35;;;;;;;;;;;;;;;-140.72;100.00;52472.03;5095838;28;19916;-69
2023/08/02 09:52:01;;;;;;;;;;;;;;;-140.72;100.00;52532.91;5095272;28;19930;-69
2023/08/02 09:54:26;;;;;;;;;;;;;;;-140.72;100.00;52474.06;5095756;28;20292;-68
2023/08/02 09:56:52;;;;;;;;;;;;;;;-140.72;100.00;52419.28;5095565;28;19916;-69
2023/08/02 09:59:17;;;;;;;;;;;;;;;-140.72;100.00;52407.09;5095919;28;19923;-69
2023/08/02 10:01:46;;;;;;;;;;;;;;;-140.72;100.00;52384.78;5094152;28;19916;-69
2023/08/02 10:04:13;;;;;;;;;;;;;;;-140.72;100.00;52453.75;5095705;28;19947;-69
2023/08/02 10:06:46;;;;;;;;;;;;;;;-140.72;100.00;52447.69;5095707;28;19963;-69
2023/08/02 10:09:17;;;;;;;;;;;;;;;-140.72;100.00;52429.41;5095506;28;19916;-69
2023/08/02 10:12:04;;;;;;;;;;;;;;;-140.72;100.00;52484.19;5091934;28;19916;-69
2023/08/02 10:14:30;;;;;;;;;;;;;;;-140.72;100.00;52502.47;5095381;28;19963;-69
2023/08/02 10:16:58;;;;;;;;;;;;;;;-140.72;100.00;52427.38;5082456;28;20370;-70
2023/08/02 10:19:24;;;;;;;;;;;;;;;-140.72;100.00;52431.44;5091153;28;19967;-69
2023/08/02 10:21:49;;;;;;;;;;;;;;;-140.72;100.00;52364.47;5085588;28;19959;-68
2023/08/02 10:24:15;;;;;;;;;;;;;;;-140.72;100.00;52340.13;5094771;28;19922;-69
2023/08/02 10:26:41;;;;;;;;;;;;;;;-140.72;100.00;52364.47;5094741;28;19962;-69
2023/08/02 10:29:06;;;;;;;;;;;;;;;-140.72;100.00;52315.78;5095771;28;19976;-68
2023/08/02 10:31:32;;;;;;;;;;;;;;;-140.72;51.46;52342.16;5095438;28;19920;-68
2023/08/02 10:33:57;;;;;;;;;;;;;;;-140.72;9.33;52283.31;5094909;28;19920;-68
2023/08/02 10:36:23;;;;;;;;;;;;;;;-140.72;0.00;52269.13;5095788;28;19916;-68
2023/08/02 10:38:50;;;;;;;;;;;;;;;-140.72;0.00;52311.72;5095302;28;20006;-68
2023/08/02 10:41:16;;;;;;;;;;;;;;;-140.72;0.00;52384.78;5095232;28;19923;-68
2023/08/02 10:43:53;;;;;;;;;;;;;;;-140.72;0.00;52297.53;5078450;28;19928;-68
2023/08/02 10:46:21;;;;;;;;;;;;;;;-140.72;0.00;52386.81;5095321;28;19944;-68
2023/08/02 10:48:46;;;;;;;;;;;;;;;-140.72;5.03;52447.69;5091528;28;19961;-68
2023/08/02 10:51:26;;;;;;;;;;;;;;;-140.72;8.54;52388.84;5094757;28;20385;-69
2023/08/02 10:54:11;;;;;;;;;;;;;;;-140.72;0.00;52344.19;5093164;28;19920;-68
2023/08/02 10:56:51;;;;;;;;;;;;;;;-140.72;0.00;52366.50;5094646;28;19916;-68
2023/08/02 10:59:17;;;;;;;;;;;;;;;-140.72;0.00;52277.22;5088068;28;19916;-68
2023/08/02 11:01:56;;;;;;;;;;;;;;;-140.72;0.00;52273.19;5111960;28;19915;-68
2023/08/02 11:04:22;;;;;;;;;;;;;;;-140.72;0.00;52295.50;5092346;28;19916;-68
2023/08/02 11:06:47;;;;;;;;;;;;;;;-140.72;0.00;52230.56;5088279;28;20331;-69
2023/08/02 11:09:12;;;;;;;;;;;;;;;-140.72;0.00;52275.19;5081866;28;20336;-68
2023/08/02 11:11:38;;;;;;;;;;;;;;;-140.72;0.00;52236.66;5097005;28;19923;-68
2023/08/02 11:14:03;;;;;;;;;;;;;;;-140.72;0.00;52216.34;5094732;28;20297;-68
2023/08/02 11:16:29;;;;;;;;;;;;;;;-140.72;0.00;52271.16;5090868;28;19916;-68
2023/08/02 11:18:54;;;;;;;;;;;;;;;-140.72;0.00;52236.66;5089160;28;19962;-68
2023/08/02 11:21:19;;;;;;;;;;;;;;;-140.72;0.00;52185.94;5092252;28;20019;-69
2023/08/02 11:23:49;;;;;;;;;;;;;;;-140.72;0.00;52214.34;5094439;28;19916;-69
2023/08/02 11:26:15;;;;;;;;;;;;;;;-140.72;0.00;52220.41;5094274;28;19916;-69
2023/08/02 11:28:42;;;;;;;;;;;;;;;-140.72;0.00;52189.97;5087714;28;19920;-69
2023/08/02 11:31:07;;;;;;;;;;;;;;;-140.72;0.00;52200.13;5095978;28;19920;-68
2023/08/02 11:33:33;;;;;;;;;;;;;;;-140.72;0.00;52212.31;5094499;28;19985;-68
2023/08/02 11:35:58;;;;;;;;;;;;;;;-140.72;0.00;52198.09;5089916;28;19985;-69
2023/08/02 11:38:24;;;;;;;;;;;;;;;-140.72;0.00;52350.28;5094135;28;20050;-69
2023/08/02 11:40:49;;;;;;;;;;;;;;;-140.72;0.00;52332.03;5081366;28;19916;-69
2023/08/02 11:43:15;;;;;;;;;;;;;;;-140.72;0.00;52297.53;5085820;28;19920;-69
2023/08/02 11:45:40;;;;;;;;;;;;;;;-140.72;0.00;52356.38;5094016;28;20412;-69
2023/08/02 11:48:06;;;;;;;;;;;;;;;-140.72;0.00;52463.91;5093724;28;19923;-69
2023/08/02 11:50:32;;;;;;;;;;;;;;;-140.72;0.00;52360.44;5094369;28;19923;-69
2023/08/02 11:53:07;;;;;;;;;;;;;;;-140.72;0.00;52222.44;5075234;28;20443;-69
2023/08/02 11:55:35;;;;;;;;;;;;;;;-140.72;0.00;52297.53;5092881;28;20397;-69
2023/08/02 11:58:01;;;;;;;;;;;;;;;-140.72;0.00;52398.97;5093790;28;20040;-69
2023/08/02 12:00:26;;;;;;;;;;;;;;;-140.72;0.00;52415.22;5093317;28;19956;-69
2023/08/02 12:02:52;;;;;;;;;;;;;;;-140.72;0.00;52474.06;5090051;28;20381;-69
2023/08/02 12:05:18;;;;;;;;;;;;;;;-140.72;0.00;52457.81;5093460;28;19916;-69
2023/08/02 12:07:43;;;;;;;;;;;;;;;-140.72;0.00;52516.66;5090490;28;19931;-69
2023/08/02 12:10:10;;;;;;;;;;;;;;;-140.72;0.00;52486.22;5096106;28;19916;-69
2023/08/02 12:12:36;;;;;;;;;;;;;;;-140.72;0.00;52514.63;5090100;28;19968;-70
2023/08/02 12:15:11;;;;;;;;;;;;;;;-140.72;0.00;52496.38;5090610;28;19920;-69